Time;durP1;ratioP1;P1;durP2;ratioP2;P2;SDS_P1;SDS_P2;PMS_P1;PMS_P2;Temp;Humidity;BMP_temperature;BMP_pressure;BME280_temperature;BME280_humidity;BME280_pressure;Samples;Min_cycle;Max_cycle;Signal;HPM_P1;HPM_P2
2023/10/15 00:00:19;0.00;0.00;0.62;0.00;0.00;0.62;4.83;1.93;;;25.20;25.80;;;;;;2276399;60;20357;-57
2023/10/15 00:03:07;0.00;0.00;0.62;0.00;0.00;0.62;3.60;1.90;;;25.10;25.70;;;;;;2276735;60;20385;-59
2023/10/15 00:05:51;0.00;0.00;0.62;0.00;0.00;0.62;3.50;1.90;;;25.10;25.70;;;;;;2276802;60;20365;-61
2023/10/15 00:08:35;0.00;0.00;0.62;0.00;0.00;0.62;5.20;1.83;;;25.10;25.70;;;;;;2276314;60;20357;-62
2023/10/15 00:11:23;0.00;0.00;0.62;0.00;0.00;0.62;5.10;2.00;;;25.10;25.80;;;;;;2276870;60;20402;-59
2023/10/15 00:14:08;0.00;0.00;0.62;0.00;0.00;0.62;4.53;1.63;;;25.10;25.80;;;;;;2276573;60;20803;-59
2023/10/15 00:16:54;0.00;0.00;0.62;0.00;0.00;0.62;3.03;1.60;;;25.10;25.80;;;;;;2276745;60;20479;-60
2023/10/15 00:19:39;0.00;0.00;0.62;0.00;0.00;0.62;4.57;1.77;;;25.10;25.80;;;;;;2275667;60;20893;-62
2023/10/15 00:22:24;0.00;0.00;0.62;0.00;0.00;0.62;3.40;1.70;;;25.10;25.80;;;;;;2276712;60;20387;-60
2023/10/15 00:25:12;0.00;0.00;0.62;0.00;0.00;0.62;3.67;2.03;;;25.00;25.70;;;;;;2276127;60;20361;-62
2023/10/15 00:27:57;0.00;0.00;0.62;0.00;0.00;0.62;4.93;1.67;;;25.00;25.70;;;;;;2277014;60;20399;-60
2023/10/15 00:30:43;0.00;0.00;0.62;0.00;0.00;0.62;2.50;1.30;;;25.00;25.80;;;;;;2277532;60;20478;-60
2023/10/15 00:36:35;0.00;0.00;0.62;0.00;0.00;0.62;3.20;1.03;;;25.00;25.80;;;;;;2270878;61;20370;-58
2023/10/15 00:39:22;0.00;0.00;0.62;0.00;0.00;0.62;4.67;1.90;;;25.00;25.80;;;;;;2268763;61;20377;-60
2023/10/15 00:42:07;0.00;0.00;0.62;0.00;0.00;0.62;2.20;1.40;;;25.00;25.80;;;;;;2266251;61;20386;-60
2023/10/15 00:44:52;0.00;0.00;0.62;0.00;0.00;0.62;3.70;1.60;;;25.00;25.80;;;;;;2268896;61;20382;-62
2023/10/15 00:47:37;0.00;0.00;0.62;0.00;0.00;0.62;4.43;2.10;;;25.00;25.80;;;;;;2269350;61;20367;-57
2023/10/15 00:50:22;0.00;0.00;0.62;0.00;0.00;0.62;3.27;1.67;;;25.00;25.80;;;;;;2271325;61;20362;-58
2023/10/15 00:53:27;0.00;0.00;0.62;0.00;0.00;0.62;4.20;1.70;;;24.90;25.70;;;;;;2283916;39;20400;-61
2023/10/15 00:56:11;0.00;0.00;0.62;0.00;0.00;0.62;2.67;1.23;;;24.90;25.70;;;;;;2276999;60;20426;-60
2023/10/15 00:59:08;0.00;0.00;0.62;0.00;0.00;0.62;4.03;1.60;;;24.90;25.70;;;;;;2276949;60;20924;-59
2023/10/15 01:02:03;0.00;0.00;0.62;0.00;0.00;0.62;2.70;1.33;;;24.90;25.80;;;;;;2277246;60;20438;-57
2023/10/15 01:04:48;0.00;0.00;0.62;0.00;0.00;0.62;4.10;1.37;;;24.90;25.80;;;;;;2277008;60;20360;-62
2023/10/15 01:07:38;0.00;0.00;0.62;0.00;0.00;0.62;2.60;1.37;;;24.90;25.80;;;;;;2273374;60;20768;-59
2023/10/15 01:10:41;0.00;0.00;0.62;0.00;0.00;0.62;2.20;1.50;;;24.90;25.80;;;;;;2273423;61;20365;-58
2023/10/15 01:13:30;0.00;0.00;0.62;0.00;0.00;0.62;3.87;2.07;;;24.90;25.80;;;;;;2266834;61;20793;-62
2023/10/15 01:16:18;0.00;0.00;0.62;0.00;0.00;0.62;3.50;1.63;;;24.90;25.80;;;;;;2262420;61;20366;-58
2023/10/15 01:22:01;0.00;0.00;0.62;0.00;0.00;0.62;2.43;1.30;;;24.90;25.70;;;;;;2269794;61;20420;-58
2023/10/15 01:24:50;0.00;0.00;0.62;0.00;0.00;0.62;3.77;2.00;;;24.80;25.70;;;;;;2273109;61;20849;-55
2023/10/15 01:27:36;0.00;0.00;0.62;0.00;0.00;0.62;2.20;1.17;;;24.90;25.70;;;;;;2273044;61;20755;-58
2023/10/15 01:30:24;0.00;0.00;0.62;0.00;0.00;0.62;3.40;1.60;;;24.80;25.70;;;;;;2273034;61;20412;-60
2023/10/15 01:33:10;0.00;0.00;0.62;0.00;0.00;0.62;5.40;2.13;;;24.80;25.70;;;;;;2273156;61;20389;-58
2023/10/15 01:35:58;0.00;0.00;0.62;0.00;0.00;0.62;3.20;1.43;;;24.80;25.70;;;;;;2273253;61;20366;-56
2023/10/15 01:38:45;0.00;0.00;0.62;0.00;0.00;0.62;3.00;1.67;;;24.80;25.70;;;;;;2272349;61;20385;-58
2023/10/15 01:41:32;0.00;0.00;0.62;0.00;0.00;0.62;4.47;2.37;;;24.80;25.70;;;;;;2272987;61;20417;-59
2023/10/15 01:44:19;0.00;0.00;0.62;0.00;0.00;0.62;3.63;1.33;;;24.80;25.70;;;;;;2273180;61;21032;-59
2023/10/15 01:49:53;0.00;0.00;0.62;0.00;0.00;0.62;3.37;1.50;;;24.70;25.60;;;;;;2272656;61;20455;-59
2023/10/15 01:52:42;0.00;0.00;0.62;0.00;0.00;0.62;3.20;1.57;;;24.70;25.60;;;;;;2273133;61;20436;-61
2023/10/15 01:55:29;0.00;0.00;0.62;0.00;0.00;0.62;3.90;1.70;;;24.70;25.60;;;;;;2270018;61;20488;-57
2023/10/15 01:58:16;0.00;0.00;0.62;0.00;0.00;0.62;5.00;2.07;;;24.70;25.60;;;;;;2269273;61;20480;-60
2023/10/15 02:01:14;0.00;0.00;0.62;0.00;0.00;0.62;3.90;1.60;;;24.70;26.10;;;;;;2270000;61;20390;-55
2023/10/15 02:03:58;0.00;0.00;0.62;0.00;0.00;0.62;3.70;1.60;;;24.70;26.10;;;;;;2269479;61;20357;-57
2023/10/15 02:06:43;0.00;0.00;0.62;0.00;0.00;0.62;3.77;1.47;;;24.70;25.50;;;;;;2269689;61;20445;-58
2023/10/15 02:09:29;0.00;0.00;0.62;0.00;0.00;0.62;2.70;1.70;;;24.70;25.60;;;;;;2272719;61;20383;-60
2023/10/15 02:12:17;0.00;0.00;0.62;0.00;0.00;0.62;3.10;1.50;;;24.70;25.60;;;;;;2272964;61;20381;-62
2023/10/15 02:15:14;0.00;0.00;0.62;0.00;0.00;0.62;2.90;1.30;;;24.70;25.50;;;;;;2273087;61;20533;-62
2023/10/15 02:18:02;0.00;0.00;0.62;0.00;0.00;0.62;3.90;1.50;;;24.60;25.50;;;;;;2269234;61;20406;-58
2023/10/15 02:21:00;0.00;0.00;0.62;0.00;0.00;0.62;3.33;1.30;;;24.70;25.60;;;;;;2272871;61;20365;-62
2023/10/15 02:23:50;0.00;0.00;0.62;0.00;0.00;0.62;3.80;1.50;;;24.60;25.50;;;;;;2269678;61;20362;-57
2023/10/15 02:26:35;0.00;0.00;0.62;0.00;0.00;0.62;4.47;1.70;;;24.60;25.50;;;;;;2269675;61;20767;-63
2023/10/15 02:29:35;0.00;0.00;0.62;0.00;0.00;0.62;5.53;2.27;;;24.60;25.50;;;;;;2272682;61;20787;-59
2023/10/15 02:32:28;0.00;0.00;0.62;0.00;0.00;0.62;2.87;1.30;;;24.60;25.60;;;;;;2272882;61;20820;-58
2023/10/15 02:35:13;0.00;0.00;0.62;0.00;0.00;0.62;3.93;1.73;;;24.60;25.50;;;;;;2267039;61;20766;-60
2023/10/15 02:37:59;0.00;0.00;0.62;0.00;0.00;0.62;3.93;1.70;;;24.60;25.50;;;;;;2272412;61;20447;-56
2023/10/15 02:44:00;0.00;0.00;0.62;0.00;0.00;0.62;4.00;1.70;;;24.60;25.50;;;;;;2267873;61;20382;-57
2023/10/15 02:46:49;0.00;0.00;0.62;0.00;0.00;0.62;3.47;1.40;;;24.60;25.60;;;;;;2272988;61;20891;-59
2023/10/15 02:49:50;0.00;0.00;0.62;0.00;0.00;0.62;5.27;1.60;;;24.60;26.10;;;;;;2272284;60;20351;-60
2023/10/15 02:52:35;0.00;0.00;0.62;0.00;0.00;0.62;3.30;1.20;;;24.50;25.50;;;;;;2411799;39;21819;-66
2023/10/15 02:55:26;0.00;0.00;0.62;0.00;0.00;0.62;2.97;1.53;;;24.50;25.50;;;;;;2260643;61;20454;-59
2023/10/15 02:58:13;0.00;0.00;0.62;0.00;0.00;0.62;2.43;1.13;;;24.50;25.50;;;;;;2256492;61;20906;-62
2023/10/15 03:00:59;0.00;0.00;0.62;0.00;0.00;0.62;2.67;1.10;;;24.50;25.50;;;;;;2258862;61;20409;-57
2023/10/15 03:03:48;0.00;0.00;0.62;0.00;0.00;0.62;4.00;1.90;;;24.50;25.50;;;;;;2256590;61;20389;-60
2023/10/15 03:06:35;0.00;0.00;0.62;0.00;0.00;0.62;3.00;1.30;;;24.50;25.50;;;;;;2259000;61;20370;-60
2023/10/15 03:09:19;0.00;0.00;0.62;0.00;0.00;0.62;3.07;1.10;;;24.50;25.50;;;;;;2258648;61;20817;-60
2023/10/15 03:12:04;0.00;0.00;0.62;0.00;0.00;0.62;2.53;1.33;;;24.50;25.50;;;;;;2256571;61;20381;-60
2023/10/15 03:14:51;0.00;0.00;0.62;0.00;0.00;0.62;5.30;1.50;;;24.50;25.50;;;;;;2256395;61;20549;-59
2023/10/15 03:17:40;0.00;0.00;0.62;0.00;0.00;0.62;2.40;1.33;;;24.50;25.50;;;;;;2256539;61;20513;-56
2023/10/15 03:20:28;0.00;0.00;0.62;0.00;0.00;0.62;4.00;1.93;;;24.50;25.50;;;;;;2256773;61;20366;-58
2023/10/15 03:23:16;0.00;0.00;0.62;0.00;0.00;0.62;3.00;1.47;;;24.40;25.40;;;;;;2256673;61;20412;-62
2023/10/15 03:26:01;0.00;0.00;0.62;0.00;0.00;0.62;2.70;1.40;;;24.50;25.50;;;;;;2256471;61;20374;-62
2023/10/15 03:28:50;0.00;0.00;0.62;0.00;0.00;0.62;3.07;1.30;;;24.40;25.40;;;;;;2256332;61;20366;-58
2023/10/15 03:31:37;0.00;0.00;0.62;0.00;0.00;0.62;2.93;1.30;;;24.40;25.40;;;;;;2256196;61;20528;-62
2023/10/15 03:34:22;0.00;0.00;0.62;0.00;0.00;0.62;3.40;1.43;;;24.40;25.40;;;;;;2256646;61;20370;-58
2023/10/15 03:37:07;0.00;0.00;0.62;0.00;0.00;0.62;3.40;1.33;;;24.40;25.40;;;;;;2256846;61;20366;-58
2023/10/15 03:39:55;0.00;0.00;0.62;0.00;0.00;0.62;2.47;1.40;;;24.40;25.40;;;;;;2256055;61;20504;-59
2023/10/15 03:42:40;0.00;0.00;0.62;0.00;0.00;0.62;4.47;1.67;;;24.40;25.40;;;;;;2258885;61;20836;-59
2023/10/15 03:45:27;0.00;0.00;0.62;0.00;0.00;0.62;3.27;1.30;;;24.40;25.40;;;;;;2256719;61;20361;-57
2023/10/15 03:48:14;0.00;0.00;0.62;0.00;0.00;0.62;2.17;1.00;;;24.40;25.40;;;;;;2256012;61;20430;-60
2023/10/15 03:50:59;0.00;0.00;0.62;0.00;0.00;0.62;4.07;1.70;;;24.40;25.40;;;;;;2256478;61;20913;-63
2023/10/15 03:53:44;0.00;0.00;0.62;0.00;0.00;0.62;2.77;1.30;;;24.30;25.40;;;;;;2258061;61;20377;-59
2023/10/15 03:56:30;0.00;0.00;0.62;0.00;0.00;0.62;3.03;1.10;;;24.30;25.40;;;;;;2260646;61;20357;-62
2023/10/15 03:59:14;0.00;0.00;0.62;0.00;0.00;0.62;2.43;1.20;;;24.30;25.40;;;;;;2260079;61;20411;-55
2023/10/15 04:02:02;0.00;0.00;0.62;0.00;0.00;0.62;1.90;1.30;;;24.30;25.40;;;;;;2260883;61;20396;-60
2023/10/15 04:04:46;0.00;0.00;0.62;0.00;0.00;0.62;2.00;0.90;;;24.30;25.40;;;;;;2261371;61;20364;-60
2023/10/15 04:07:32;0.00;0.00;0.62;0.00;0.00;0.62;2.23;1.13;;;24.30;25.40;;;;;;2261168;61;20369;-56
2023/10/15 04:10:35;0.00;0.00;0.62;0.00;0.00;0.62;2.83;1.40;;;24.30;25.40;;;;;;2261164;61;20373;-57
2023/10/15 04:13:21;0.00;0.00;0.62;0.00;0.00;0.62;2.67;1.00;;;24.30;25.40;;;;;;2261327;61;20416;-60
2023/10/15 04:16:06;0.00;0.00;0.62;0.00;0.00;0.62;2.67;1.20;;;24.30;25.40;;;;;;2261293;61;20440;-60
2023/10/15 04:18:50;0.00;0.00;0.62;0.00;0.00;0.62;2.20;1.00;;;24.30;25.40;;;;;;2260709;61;20949;-60
2023/10/15 04:21:38;0.00;0.00;0.62;0.00;0.00;0.62;3.10;1.20;;;24.20;25.30;;;;;;2261542;61;20380;-60
2023/10/15 04:24:39;0.00;0.00;0.62;0.00;0.00;0.62;1.70;1.00;;;24.30;25.40;;;;;;2261150;61;20445;-61
2023/10/15 04:27:27;0.00;0.00;0.62;0.00;0.00;0.62;1.93;0.80;;;24.30;25.40;;;;;;2261594;61;20769;-60
2023/10/15 04:30:14;0.00;0.00;0.62;0.00;0.00;0.62;1.80;0.90;;;24.20;25.30;;;;;;2261188;61;20357;-62
2023/10/15 04:32:58;0.00;0.00;0.62;0.00;0.00;0.62;3.43;1.17;;;24.20;25.30;;;;;;2261080;61;20421;-55
2023/10/15 04:35:42;0.00;0.00;0.62;0.00;0.00;0.62;1.73;0.97;;;24.20;25.30;;;;;;2261045;61;20444;-58
2023/10/15 04:38:28;0.00;0.00;0.62;0.00;0.00;0.62;1.90;1.03;;;24.20;25.30;;;;;;2257385;61;20384;-61
2023/10/15 04:41:21;0.00;0.00;0.62;0.00;0.00;0.62;2.23;0.93;;;24.20;25.30;;;;;;2261005;61;20800;-59
2023/10/15 04:44:11;0.00;0.00;0.62;0.00;0.00;0.62;3.07;1.20;;;24.20;25.30;;;;;;2261404;61;20468;-61
2023/10/15 04:47:05;0.00;0.00;0.62;0.00;0.00;0.62;1.87;0.97;;;24.20;25.40;;;;;;2261159;61;20384;-62
2023/10/15 04:49:49;0.00;0.00;0.62;0.00;0.00;0.62;2.00;1.00;;;24.20;25.40;;;;;;2260816;61;20411;-60
2023/10/15 04:52:34;0.00;0.00;0.62;0.00;0.00;0.62;1.70;0.90;;;24.20;25.40;;;;;;2260923;61;20431;-58
2023/10/15 04:55:18;0.00;0.00;0.62;0.00;0.00;0.62;2.00;1.00;;;24.20;25.40;;;;;;2259683;61;20377;-60
2023/10/15 04:58:03;0.00;0.00;0.62;0.00;0.00;0.62;1.80;0.97;;;24.10;25.30;;;;;;2260720;61;20388;-63
2023/10/15 05:00:48;0.00;0.00;0.62;0.00;0.00;0.62;2.13;1.13;;;24.20;25.40;;;;;;2260988;61;20369;-54
2023/10/15 05:03:37;0.00;0.00;0.62;0.00;0.00;0.62;2.10;1.00;;;24.20;25.40;;;;;;2261011;61;20381;-62
2023/10/15 05:06:22;0.00;0.00;0.62;0.00;0.00;0.62;2.63;1.00;;;24.10;25.30;;;;;;2261501;61;20361;-59
2023/10/15 05:09:15;0.00;0.00;0.62;0.00;0.00;0.62;1.60;0.80;;;24.10;25.40;;;;;;2259969;61;20357;-56
2023/10/15 05:12:00;0.00;0.00;0.62;0.00;0.00;0.62;1.67;0.83;;;24.10;25.40;;;;;;2286208;47;20410;-57
2023/10/15 05:14:49;0.00;0.00;0.62;0.00;0.00;0.62;3.83;1.10;;;24.10;25.40;;;;;;2273256;61;20374;-58
2023/10/15 05:17:33;0.00;0.00;0.62;0.00;0.00;0.62;2.57;1.20;;;24.10;25.40;;;;;;2273157;61;20936;-57
2023/10/15 05:20:22;0.00;0.00;0.62;0.00;0.00;0.62;2.43;1.50;;;24.10;25.40;;;;;;2273076;61;20412;-57
2023/10/15 05:23:07;0.00;0.00;0.62;0.00;0.00;0.62;2.30;1.20;;;24.10;25.40;;;;;;2272958;61;20443;-58
2023/10/15 05:25:53;0.00;0.00;0.62;0.00;0.00;0.62;3.03;1.50;;;24.10;25.40;;;;;;2273222;61;20385;-58
2023/10/15 05:28:38;0.00;0.00;0.62;0.00;0.00;0.62;2.30;1.53;;;24.10;25.40;;;;;;2273081;61;20384;-58
2023/10/15 05:31:22;0.00;0.00;0.62;0.00;0.00;0.62;2.70;1.23;;;24.10;25.40;;;;;;2273071;61;20362;-56
2023/10/15 05:34:08;0.00;0.00;0.62;0.00;0.00;0.62;4.87;2.10;;;24.10;25.40;;;;;;2273123;61;20370;-57
2023/10/15 05:36:54;0.00;0.00;0.62;0.00;0.00;0.62;2.57;1.90;;;24.10;25.40;;;;;;2273129;61;20357;-57
2023/10/15 05:39:38;0.00;0.00;0.62;0.00;0.00;0.62;5.30;2.57;;;24.10;25.40;;;;;;2272557;61;20382;-58
2023/10/15 05:42:23;0.00;0.00;0.62;0.00;0.00;0.62;4.60;2.73;;;24.10;25.40;;;;;;2273231;61;20402;-57
2023/10/15 05:45:08;0.00;0.00;0.62;0.00;0.00;0.62;3.77;2.47;;;24.10;25.40;;;;;;2272956;61;20910;-55
2023/10/15 05:47:53;0.00;0.00;0.62;0.00;0.00;0.62;5.57;2.50;;;24.10;25.40;;;;;;2272892;61;20378;-63
2023/10/15 05:50:39;0.00;0.00;0.62;0.00;0.00;0.62;4.07;2.80;;;24.10;25.40;;;;;;2273314;61;20891;-57
2023/10/15 05:56:01;0.00;0.00;0.62;0.00;0.00;0.62;4.23;2.70;;;24.00;25.40;;;;;;2274352;61;20367;-58
2023/10/15 05:58:45;0.00;0.00;0.62;0.00;0.00;0.62;4.40;2.67;;;24.00;25.40;;;;;;2272960;61;20943;-59
2023/10/15 06:01:31;0.00;0.00;0.62;0.00;0.00;0.62;3.27;2.23;;;24.00;25.40;;;;;;2272906;61;20408;-58
2023/10/15 06:04:17;0.00;0.00;0.62;0.00;0.00;0.62;4.40;2.80;;;24.00;25.40;;;;;;2273262;61;20366;-62
2023/10/15 06:07:05;0.00;0.00;0.62;0.00;0.00;0.62;4.20;2.10;;;24.00;25.40;;;;;;2267141;61;20401;-58
2023/10/15 06:09:50;0.00;0.00;0.62;0.00;0.00;0.62;4.20;2.80;;;24.00;25.50;;;;;;2272864;61;20447;-57
2023/10/15 06:12:37;0.00;0.00;0.62;0.00;0.00;0.62;3.90;2.60;;;24.00;25.40;;;;;;2269549;61;20462;-60
2023/10/15 06:15:21;0.00;0.00;0.62;0.00;0.00;0.62;4.20;2.30;;;24.00;25.40;;;;;;2272937;61;20394;-59
2023/10/15 06:18:06;0.00;0.00;0.62;0.00;0.00;0.62;4.00;2.10;;;24.00;25.40;;;;;;2272445;61;20448;-61
2023/10/15 06:20:51;0.00;0.00;0.62;0.00;0.00;0.62;3.13;2.30;;;24.00;25.40;;;;;;2272785;61;20443;-59
2023/10/15 06:23:35;0.00;0.00;0.62;0.00;0.00;0.62;2.97;2.20;;;24.00;25.40;;;;;;2272701;60;20382;-58
2023/10/15 06:26:21;0.00;0.00;0.62;0.00;0.00;0.62;3.20;1.90;;;24.00;25.40;;;;;;2272728;61;20378;-58
2023/10/15 06:29:09;0.00;0.00;0.62;0.00;0.00;0.62;4.37;2.20;;;24.00;25.40;;;;;;2272681;61;20355;-56
2023/10/15 06:31:55;0.00;0.00;0.62;0.00;0.00;0.62;3.50;2.20;;;24.00;25.40;;;;;;2272515;61;20390;-57
2023/10/15 06:34:39;0.00;0.00;0.62;0.00;0.00;0.62;3.13;2.07;;;23.90;25.30;;;;;;2273106;61;20359;-58
2023/10/15 06:37:24;0.00;0.00;0.62;0.00;0.00;0.62;3.40;2.20;;;23.90;25.30;;;;;;2272848;61;20378;-57
2023/10/15 06:40:10;0.00;0.00;0.62;0.00;0.00;0.62;3.47;2.20;;;24.00;25.40;;;;;;2272671;61;20366;-58
2023/10/15 06:43:00;0.00;0.00;0.62;0.00;0.00;0.62;3.70;2.80;;;23.90;25.30;;;;;;2272807;61;20386;-58
2023/10/15 06:45:47;0.00;0.00;0.62;0.00;0.00;0.62;4.00;2.63;;;24.00;25.40;;;;;;2272942;61;20362;-57
2023/10/15 06:48:33;0.00;0.00;0.62;0.00;0.00;0.62;3.40;2.50;;;23.90;25.30;;;;;;2272490;61;20355;-56
2023/10/15 06:51:17;0.00;0.00;0.62;0.00;0.00;0.62;3.70;2.63;;;23.90;25.30;;;;;;2273050;61;20366;-59
2023/10/15 06:54:02;0.00;0.00;0.62;0.00;0.00;0.62;4.80;2.97;;;23.90;25.30;;;;;;2272659;61;20370;-56
2023/10/15 06:56:47;0.00;0.00;0.62;0.00;0.00;0.62;3.53;2.73;;;23.90;25.30;;;;;;2272945;61;20446;-61
2023/10/15 06:59:31;0.00;0.00;0.62;0.00;0.00;0.62;4.93;3.00;;;23.90;25.30;;;;;;2272170;61;20432;-58
2023/10/15 07:02:17;0.00;0.00;0.62;0.00;0.00;0.62;3.17;2.13;;;23.90;25.30;;;;;;2272904;61;20397;-62
2023/10/15 07:05:02;0.00;0.00;0.62;0.00;0.00;0.62;4.63;2.90;;;23.90;25.30;;;;;;2272689;61;20411;-59
2023/10/15 07:07:46;0.00;0.00;0.62;0.00;0.00;0.62;4.33;2.73;;;23.90;25.40;;;;;;2272521;61;20460;-63
2023/10/15 07:10:33;0.00;0.00;0.62;0.00;0.00;0.62;3.50;2.33;;;23.90;25.40;;;;;;2272718;61;20358;-59
2023/10/15 07:13:18;0.00;0.00;0.62;0.00;0.00;0.62;3.67;2.50;;;23.90;25.40;;;;;;2272950;61;20389;-56
2023/10/15 07:16:02;0.00;0.00;0.62;0.00;0.00;0.62;3.00;2.20;;;23.90;25.40;;;;;;2272880;61;20373;-58
2023/10/15 07:18:48;0.00;0.00;0.62;0.00;0.00;0.62;4.13;2.37;;;23.90;25.40;;;;;;2272628;61;20393;-57
2023/10/15 07:21:33;0.00;0.00;0.62;0.00;0.00;0.62;3.33;2.17;;;23.90;25.40;;;;;;2272613;61;20386;-59
2023/10/15 07:24:17;0.00;0.00;0.62;0.00;0.00;0.62;4.47;2.13;;;23.90;25.40;;;;;;2272693;61;20443;-61
2023/10/15 07:27:04;0.00;0.00;0.62;0.00;0.00;0.62;2.90;2.07;;;23.90;25.40;;;;;;2272993;61;20358;-58
2023/10/15 07:29:49;0.00;0.00;0.62;0.00;0.00;0.62;3.13;1.83;;;23.90;25.40;;;;;;2272515;61;20438;-57
2023/10/15 07:32:34;0.00;0.00;0.62;0.00;0.00;0.62;2.47;1.67;;;23.90;25.40;;;;;;2272565;61;20378;-60
2023/10/15 07:35:21;0.00;0.00;0.62;0.00;0.00;0.62;3.37;1.70;;;23.90;25.40;;;;;;2272730;60;20366;-59
2023/10/15 07:38:07;0.00;0.00;0.62;0.00;0.00;0.62;4.43;2.10;;;23.90;25.40;;;;;;2272175;61;20390;-61
2023/10/15 07:40:55;0.00;0.00;0.62;0.00;0.00;0.62;2.53;1.83;;;23.90;25.40;;;;;;2272851;61;20894;-60
2023/10/15 07:43:40;0.00;0.00;0.62;0.00;0.00;0.62;2.33;1.70;;;23.90;25.40;;;;;;2272475;61;20777;-57
2023/10/15 07:46:25;0.00;0.00;0.62;0.00;0.00;0.62;3.03;1.70;;;23.90;25.40;;;;;;2272824;61;20920;-59
2023/10/15 07:49:12;0.00;0.00;0.62;0.00;0.00;0.62;3.00;1.90;;;23.90;25.40;;;;;;2268081;61;20374;-58
2023/10/15 07:51:58;0.00;0.00;0.62;0.00;0.00;0.62;4.23;1.73;;;23.90;25.40;;;;;;2268489;61;20378;-62
2023/10/15 07:54:43;0.00;0.00;0.62;0.00;0.00;0.62;3.17;1.90;;;23.90;25.40;;;;;;2268468;61;20500;-56
2023/10/15 07:57:28;0.00;0.00;0.62;0.00;0.00;0.62;3.40;2.13;;;23.90;25.40;;;;;;2268719;61;20460;-56
2023/10/15 08:00:22;0.00;0.00;0.62;0.00;0.00;0.62;2.30;1.70;;;23.90;25.40;;;;;;2267992;61;20433;-57
2023/10/15 08:03:07;0.00;0.00;0.62;0.00;0.00;0.62;2.40;1.90;;;23.90;25.40;;;;;;2268461;61;20399;-61
2023/10/15 08:05:52;0.00;0.00;0.62;0.00;0.00;0.62;2.60;1.80;;;23.90;25.40;;;;;;2268626;61;20363;-60
2023/10/15 08:08:38;0.00;0.00;0.62;0.00;0.00;0.62;3.60;1.80;;;23.90;25.40;;;;;;2268371;61;20355;-60
2023/10/15 08:11:22;0.00;0.00;0.62;0.00;0.00;0.62;4.20;2.30;;;23.90;25.40;;;;;;2268357;61;20412;-60
2023/10/15 08:14:07;0.00;0.00;0.62;0.00;0.00;0.62;3.73;2.70;;;23.90;25.40;;;;;;2268277;61;20398;-62
2023/10/15 08:16:51;0.00;0.00;0.62;0.00;0.00;0.62;3.83;2.77;;;23.90;25.40;;;;;;2268574;61;20890;-58
2023/10/15 08:19:36;0.00;0.00;0.62;0.00;0.00;0.62;2.60;1.93;;;23.90;25.40;;;;;;2268139;61;20389;-61
2023/10/15 08:22:21;0.00;0.00;0.62;0.00;0.00;0.62;4.57;2.90;;;23.90;25.40;;;;;;2268265;61;20378;-62
2023/10/15 08:25:13;0.00;0.00;0.62;0.00;0.00;0.62;3.57;2.17;;;23.90;25.40;;;;;;2265235;61;20367;-62
2023/10/15 08:27:58;0.00;0.00;0.62;0.00;0.00;0.62;3.43;2.53;;;23.90;25.50;;;;;;2264833;61;20418;-65
2023/10/15 08:30:42;0.00;0.00;0.62;0.00;0.00;0.62;3.30;2.33;;;23.90;25.50;;;;;;2268533;61;20883;-60
2023/10/15 08:33:26;0.00;0.00;0.62;0.00;0.00;0.62;3.50;2.40;;;23.90;25.40;;;;;;2290255;48;20814;-61
2023/10/15 08:36:11;0.00;0.00;0.62;0.00;0.00;0.62;4.57;3.10;;;23.90;25.40;;;;;;2274251;61;20429;-58
2023/10/15 08:38:55;0.00;0.00;0.62;0.00;0.00;0.62;3.90;2.70;;;23.90;25.50;;;;;;2272193;61;20421;-60
2023/10/15 08:41:45;0.00;0.00;0.62;0.00;0.00;0.62;4.00;2.80;;;23.90;25.40;;;;;;2272580;61;20503;-63
2023/10/15 08:44:30;0.00;0.00;0.62;0.00;0.00;0.62;3.27;2.70;;;23.90;25.40;;;;;;2272384;61;20374;-60
2023/10/15 08:47:15;0.00;0.00;0.62;0.00;0.00;0.62;4.20;2.40;;;23.90;25.40;;;;;;2272336;60;20446;-63
2023/10/15 08:50:00;0.00;0.00;0.62;0.00;0.00;0.62;3.20;2.30;;;23.90;25.40;;;;;;2273006;61;20358;-61
2023/10/15 08:52:46;0.00;0.00;0.62;0.00;0.00;0.62;2.77;2.30;;;23.90;25.50;;;;;;2273448;61;20389;-60
2023/10/15 08:55:33;0.00;0.00;0.62;0.00;0.00;0.62;3.53;2.40;;;23.90;25.40;;;;;;2273164;61;20366;-56
2023/10/15 08:58:21;0.00;0.00;0.62;0.00;0.00;0.62;4.73;2.30;;;23.90;25.50;;;;;;2269398;61;20409;-56
2023/10/15 09:01:05;0.00;0.00;0.62;0.00;0.00;0.62;3.27;2.40;;;23.90;25.50;;;;;;2273251;61;20413;-60
2023/10/15 09:03:52;0.00;0.00;0.62;0.00;0.00;0.62;2.40;1.73;;;24.00;25.50;;;;;;2270018;61;20419;-59
2023/10/15 09:06:37;0.00;0.00;0.62;0.00;0.00;0.62;3.13;1.83;;;23.90;25.40;;;;;;2273069;61;20848;-62
2023/10/15 09:09:22;0.00;0.00;0.62;0.00;0.00;0.62;3.43;2.17;;;23.90;25.40;;;;;;2272890;61;20398;-58
2023/10/15 09:12:07;0.00;0.00;0.62;0.00;0.00;0.62;5.07;2.73;;;23.90;25.40;;;;;;2273423;61;20422;-60
2023/10/15 09:14:53;0.00;0.00;0.62;0.00;0.00;0.62;3.00;2.20;;;23.90;25.50;;;;;;2273389;61;20366;-62
2023/10/15 09:17:38;0.00;0.00;0.62;0.00;0.00;0.62;3.40;2.00;;;23.90;25.40;;;;;;2273082;61;20415;-57
2023/10/15 09:20:26;0.00;0.00;0.62;0.00;0.00;0.62;3.77;2.23;;;23.90;25.40;;;;;;2273124;61;20699;-60
2023/10/15 09:23:11;0.00;0.00;0.62;0.00;0.00;0.62;2.90;2.00;;;23.90;25.40;;;;;;2273333;61;20536;-58
2023/10/15 09:25:55;0.00;0.00;0.62;0.00;0.00;0.62;3.10;1.97;;;23.90;25.40;;;;;;2273316;61;20434;-54
2023/10/15 09:28:40;0.00;0.00;0.62;0.00;0.00;0.62;4.90;2.37;;;24.00;25.50;;;;;;2272684;61;20362;-56
2023/10/15 09:31:26;0.00;0.00;0.62;0.00;0.00;0.62;3.07;2.10;;;23.90;25.40;;;;;;2273227;61;20435;-60
2023/10/15 09:34:11;0.00;0.00;0.62;0.00;0.00;0.62;4.97;2.40;;;23.90;25.40;;;;;;2272923;61;20381;-60
2023/10/15 09:36:58;0.00;0.00;0.62;0.00;0.00;0.62;5.47;2.47;;;24.00;25.50;;;;;;2273060;61;20413;-59
2023/10/15 09:39:43;0.00;0.00;0.62;0.00;0.00;0.62;4.30;2.20;;;23.90;25.50;;;;;;2272582;61;20397;-59
2023/10/15 09:42:33;0.00;0.00;0.62;0.00;0.00;0.62;4.00;2.03;;;24.00;25.60;;;;;;2273006;61;20456;-60
2023/10/15 09:45:18;0.00;0.00;0.62;0.00;0.00;0.62;3.37;2.23;;;23.90;25.60;;;;;;2272994;61;20339;-57
2023/10/15 09:48:05;0.00;0.00;0.62;0.00;0.00;0.62;4.40;2.67;;;23.90;25.60;;;;;;2272736;61;20363;-57
2023/10/15 09:50:53;0.00;0.00;0.62;0.00;0.00;0.62;3.43;2.47;;;24.00;25.70;;;;;;2272797;61;20905;-60
2023/10/15 09:53:41;0.00;0.00;0.62;0.00;0.00;0.62;3.47;2.00;;;24.00;25.70;;;;;;2272965;61;20362;-57
2023/10/15 09:56:29;0.00;0.00;0.62;0.00;0.00;0.62;3.60;2.20;;;24.00;25.80;;;;;;2272952;61;20879;-58
2023/10/15 09:59:15;0.00;0.00;0.62;0.00;0.00;0.62;3.47;2.37;;;24.00;25.80;;;;;;2272439;60;20423;-57
2023/10/15 10:02:06;0.00;0.00;0.62;0.00;0.00;0.62;2.83;1.60;;;24.00;25.80;;;;;;2272872;61;20448;-59
2023/10/15 10:05:17;0.00;0.00;0.62;0.00;0.00;0.62;2.63;1.90;;;24.00;25.90;;;;;;2269545;61;20355;-59
2023/10/15 10:08:16;0.00;0.00;0.62;0.00;0.00;0.62;3.00;2.00;;;24.00;25.90;;;;;;2272532;61;20423;-62
2023/10/15 10:11:15;0.00;0.00;0.62;0.00;0.00;0.62;3.13;1.67;;;24.00;25.90;;;;;;2273041;61;20476;-59
2023/10/15 10:14:33;0.00;0.00;0.62;0.00;0.00;0.62;2.67;1.97;;;24.00;25.90;;;;;;2272854;61;20451;-60
2023/10/15 10:17:20;0.00;0.00;0.62;0.00;0.00;0.62;3.70;2.10;;;24.00;25.90;;;;;;2273040;61;20370;-60
2023/10/15 10:20:11;0.00;0.00;0.62;0.00;0.00;0.62;3.07;1.97;;;24.00;25.90;;;;;;2272263;61;20421;-62
2023/10/15 10:22:59;0.00;0.00;0.62;0.00;0.00;0.62;3.00;2.10;;;24.10;25.90;;;;;;2272810;61;20385;-55
2023/10/15 10:25:48;0.00;0.00;0.62;0.00;0.00;0.62;3.40;2.37;;;24.10;25.90;;;;;;2272799;61;20929;-60
2023/10/15 10:28:36;0.00;0.00;0.62;0.00;0.00;0.62;2.97;2.10;;;24.10;25.90;;;;;;2272229;61;20358;-59
2023/10/15 10:31:21;0.00;0.00;0.62;0.00;0.00;0.62;2.50;1.80;;;24.10;25.80;;;;;;2272701;61;20413;-58
2023/10/15 10:34:06;0.00;0.00;0.62;0.00;0.00;0.62;3.23;2.43;;;24.10;25.80;;;;;;2272545;61;20452;-57
2023/10/15 10:36:53;0.00;0.00;0.62;0.00;0.00;0.62;3.00;2.13;;;24.10;25.80;;;;;;2272817;61;20354;-60
2023/10/15 10:39:43;0.00;0.00;0.62;0.00;0.00;0.62;3.37;2.20;;;24.10;25.80;;;;;;2272526;61;20439;-60
2023/10/15 10:42:29;0.00;0.00;0.62;0.00;0.00;0.62;3.13;2.13;;;24.10;25.80;;;;;;2272505;61;20378;-57
2023/10/15 10:45:53;0.00;0.00;0.62;0.00;0.00;0.62;2.73;1.80;;;24.10;26.30;;;;;;2273137;61;20920;-58
2023/10/15 10:48:38;0.00;0.00;0.62;0.00;0.00;0.62;2.87;2.00;;;24.10;25.80;;;;;;2272156;61;20354;-60
2023/10/15 10:51:30;0.00;0.00;0.62;0.00;0.00;0.62;2.60;1.80;;;24.10;25.80;;;;;;2273219;61;20759;-60
2023/10/15 10:54:27;0.00;0.00;0.62;0.00;0.00;0.62;2.87;1.90;;;24.10;25.80;;;;;;2272816;61;20828;-62
2023/10/15 10:57:11;0.00;0.00;0.62;0.00;0.00;0.62;2.67;2.00;;;24.10;25.80;;;;;;2272589;61;20374;-59
2023/10/15 10:59:56;0.00;0.00;0.62;0.00;0.00;0.62;2.63;1.70;;;24.10;25.70;;;;;;2269167;61;20917;-57
2023/10/15 11:02:41;0.00;0.00;0.62;0.00;0.00;0.62;2.70;1.60;;;24.10;25.70;;;;;;2272851;61;20465;-58
2023/10/15 11:05:29;0.00;0.00;0.62;0.00;0.00;0.62;2.90;1.20;;;24.10;25.70;;;;;;2272739;61;20404;-56
2023/10/15 11:08:18;0.00;0.00;0.62;0.00;0.00;0.62;2.87;1.70;;;24.10;25.70;;;;;;2272390;61;20416;-61
2023/10/15 11:11:04;0.00;0.00;0.62;0.00;0.00;0.62;2.67;1.63;;;24.20;25.70;;;;;;2272916;60;20377;-58
2023/10/15 11:13:49;0.00;0.00;0.62;0.00;0.00;0.62;2.60;1.60;;;24.20;25.70;;;;;;2272923;61;20509;-62